Time;durP1;ratioP1;P1;durP2;ratioP2;P2;SDS_P1;SDS_P2;PMS_P1;PMS_P2;Temp;Humidity;BMP_temperature;BMP_pressure;BME280_temperature;BME280_humidity;BME280_pressure;Samples;Min_cycle;Max_cycle;Signal;HPM_P1;HPM_P2
2021/04/19 00:01:33;;;;;;;0.40;0.40;;;;;;;;;;5039314;28;20251;-52
2021/04/19 00:04:00;;;;;;;2.30;2.20;;;;;;;;;;5033943;28;20609;-51
2021/04/19 00:06:27;;;;;;;1.37;1.33;;;;;;;;;;5027305;28;20196;-52
2021/04/19 00:08:53;;;;;;;0.10;0.10;;;;;;;;;;5030661;28;20208;-55
2021/04/19 00:11:24;;;;;;;1.57;1.37;;;;;;;;;;5028004;28;20275;-51
2021/04/19 00:13:50;;;;;;;0.00;0.00;;;;;;;;;;5026048;28;20180;-52
2021/04/19 00:16:17;;;;;;;0.20;0.20;;;;;;;;;;5024090;28;20257;-55
2021/04/19 00:18:44;;;;;;;0.47;0.47;;;;;;;;;;5027549;28;20404;-51
2021/04/19 00:21:10;;;;;;;1.10;1.10;;;;;;;;;;5027154;28;20191;-53
2021/04/19 00:23:37;;;;;;;2.63;2.43;;;;;;;;;;5028450;28;20266;-54
2021/04/19 00:26:03;;;;;;;0.03;0.03;;;;;;;;;;5024682;28;20293;-52
2021/04/19 00:28:30;;;;;;;0.20;0.20;;;;;;;;;;5027065;28;20944;-52
2021/04/19 00:30:57;;;;;;;0.00;0.00;;;;;;;;;;5026798;28;20243;-52
2021/04/19 00:33:24;;;;;;;0.00;0.00;;;;;;;;;;5032037;28;20398;-49
2021/04/19 00:35:50;;;;;;;0.43;0.43;;;;;;;;;;5033183;28;20477;-59
2021/04/19 00:38:17;;;;;;;0.00;0.00;;;;;;;;;;5027391;28;20188;-59
2021/04/19 00:40:44;;;;;;;0.83;0.80;;;;;;;;;;5044872;28;20222;-52
2021/04/19 00:43:11;;;;;;;1.67;1.07;;;;;;;;;;5032390;28;20183;-55
2021/04/19 00:45:38;;;;;;;5.40;5.20;;;;;;;;;;5044265;28;21640;-51
2021/04/19 00:48:05;;;;;;;3.33;1.17;;;;;;;;;;5029328;28;20188;-55
2021/04/19 00:50:33;;;;;;;0.27;0.10;;;;;;;;;;5024899;28;20488;-54
2021/04/19 00:53:04;;;;;;;9.57;1.83;;;;;;;;;;5024659;28;20189;-52
2021/04/19 00:55:31;;;;;;;4.90;1.57;;;;;;;;;;5026409;28;20191;-51
2021/04/19 00:57:57;;;;;;;0.17;0.13;;;;;;;;;;5028230;28;20271;-53
2021/04/19 01:00:31;;;;;;;0.00;0.00;;;;;;;;;;5027705;28;20617;-55
2021/04/19 01:02:59;;;;;;;2.43;2.33;;;;;;;;;;5030447;28;20192;-59
2021/04/19 01:05:27;;;;;;;1.97;0.87;;;;;;;;;;5028660;28;20211;-58
2021/04/19 01:07:54;;;;;;;0.00;0.00;;;;;;;;;;5022428;28;20254;-59
2021/04/19 01:10:21;;;;;;;0.03;0.03;;;;;;;;;;5028390;28;20235;-59
2021/04/19 01:12:47;;;;;;;6.37;5.13;;;;;;;;;;5025319;28;20191;-59
2021/04/19 01:15:16;;;;;;;8.50;0.90;;;;;;;;;;5036675;28;20626;-59
2021/04/19 01:17:43;;;;;;;4.27;1.60;;;;;;;;;;5038917;28;20599;-58
2021/04/19 01:20:11;;;;;;;0.00;0.00;;;;;;;;;;5047921;28;20183;-58
2021/04/19 01:22:38;;;;;;;2.00;0.43;;;;;;;;;;5035931;28;20180;-59
2021/04/19 01:25:06;;;;;;;1.63;1.20;;;;;;;;;;5035745;28;20265;-59
2021/04/19 01:27:33;;;;;;;1.23;1.03;;;;;;;;;;5033201;28;20643;-59
2021/04/19 01:29:59;;;;;;;1.60;1.50;;;;;;;;;;5050456;28;20223;-58
2021/04/19 01:32:27;;;;;;;1.90;1.00;;;;;;;;;;5036273;28;20591;-59
2021/04/19 01:34:53;;;;;;;0.00;0.00;;;;;;;;;;5043562;28;20233;-58
2021/04/19 01:37:20;;;;;;;0.00;0.00;;;;;;;;;;5041340;28;20679;-59
2021/04/19 01:39:47;;;;;;;0.10;0.10;;;;;;;;;;5031561;28;20300;-59
2021/04/19 01:42:13;;;;;;;1.67;1.00;;;;;;;;;;5031905;28;20172;-58
2021/04/19 01:44:40;;;;;;;1.60;1.60;;;;;;;;;;5039578;28;20274;-58
2021/04/19 01:47:06;;;;;;;0.23;0.23;;;;;;;;;;5025512;28;20537;-59
2021/04/19 01:49:33;;;;;;;0.00;0.00;;;;;;;;;;5022633;28;20212;-59
2021/04/19 01:52:01;;;;;;;0.30;0.30;;;;;;;;;;5027150;28;20232;-59
2021/04/19 01:54:28;;;;;;;0.27;0.27;;;;;;;;;;5028349;28;20191;-59
2021/04/19 01:56:56;;;;;;;5.63;5.13;;;;;;;;;;5023567;28;20172;-59
2021/04/19 01:59:25;;;;;;;4.63;1.20;;;;;;;;;;5023523;28;20752;-59
2021/04/19 02:02:03;;;;;;;0.03;0.03;;;;;;;;;;5028063;28;20505;-59
2021/04/19 02:04:36;;;;;;;0.60;0.57;;;;;;;;;;5033679;28;20183;-59
2021/04/19 02:07:07;;;;;;;0.00;0.00;;;;;;;;;;5028537;28;20668;-59
2021/04/19 02:09:47;;;;;;;1.97;0.17;;;;;;;;;;5023796;28;20207;-59
2021/04/19 02:12:46;;;;;;;0.00;0.00;;;;;;;;;;5022231;28;20917;-60
2021/04/19 02:15:21;;;;;;;2.63;1.63;;;;;;;;;;5026273;28;20843;-60
2021/04/19 02:17:54;;;;;;;0.20;0.20;;;;;;;;;;5032874;28;20215;-60
2021/04/19 02:20:47;;;;;;;0.43;0.43;;;;;;;;;;5031148;28;20195;-61
2021/04/19 02:23:16;;;;;;;0.20;0.20;;;;;;;;;;5037687;28;20253;-59
2021/04/19 02:25:44;;;;;;;0.43;0.33;;;;;;;;;;5035539;28;20287;-60
2021/04/19 02:28:20;;;;;;;0.00;0.00;;;;;;;;;;5025300;28;20202;-60
2021/04/19 02:30:48;;;;;;;3.10;2.20;;;;;;;;;;5041513;28;20279;-60
2021/04/19 02:33:16;;;;;;;0.30;0.30;;;;;;;;;;5028699;28;20294;-60
2021/04/19 02:35:44;;;;;;;0.00;0.00;;;;;;;;;;5020241;28;20212;-60
2021/04/19 02:38:13;;;;;;;0.20;0.20;;;;;;;;;;5024872;28;20180;-60
2021/04/19 02:40:40;;;;;;;0.00;0.00;;;;;;;;;;5030792;28;20985;-60
2021/04/19 02:43:07;;;;;;;0.30;0.30;;;;;;;;;;5027828;28;20187;-61
2021/04/19 02:45:34;;;;;;;0.10;0.10;;;;;;;;;;5030387;28;20287;-60
2021/04/19 02:48:02;;;;;;;0.13;0.13;;;;;;;;;;5034633;28;20753;-60
2021/04/19 02:50:30;;;;;;;5.10;1.00;;;;;;;;;;5028757;28;20214;-60
2021/04/19 02:52:59;;;;;;;4.30;4.00;;;;;;;;;;5027107;28;20593;-60
2021/04/19 02:55:28;;;;;;;0.00;0.00;;;;;;;;;;5027777;28;20180;-59
2021/04/19 02:58:02;;;;;;;16.13;7.63;;;;;;;;;;5024141;28;20235;-61
2021/04/19 03:00:31;;;;;;;0.00;0.00;;;;;;;;;;5024758;28;20848;-61
2021/04/19 03:03:00;;;;;;;0.07;0.07;;;;;;;;;;5022862;28;20265;-61
2021/04/19 03:05:27;;;;;;;12.97;2.33;;;;;;;;;;5021900;28;20303;-61
2021/04/19 03:07:56;;;;;;;0.00;0.00;;;;;;;;;;5022202;28;20180;-62
2021/04/19 03:10:23;;;;;;;0.00;0.00;;;;;;;;;;5028379;28;20334;-60
2021/04/19 03:12:52;;;;;;;0.93;0.93;;;;;;;;;;5021075;28;20176;-59
2021/04/19 03:15:23;;;;;;;0.30;0.30;;;;;;;;;;5021500;28;20258;-61
2021/04/19 03:17:49;;;;;;;0.00;0.00;;;;;;;;;;5020644;28;20180;-60
2021/04/19 03:20:21;;;;;;;0.30;0.30;;;;;;;;;;5035790;28;20311;-60
2021/04/19 03:22:49;;;;;;;0.60;0.60;;;;;;;;;;5032597;28;20202;-59
2021/04/19 03:25:16;;;;;;;6.03;1.97;;;;;;;;;;5053780;28;20282;-62
2021/04/19 03:27:46;;;;;;;0.00;0.00;;;;;;;;;;5032064;28;20176;-60
2021/04/19 03:30:13;;;;;;;0.27;0.27;;;;;;;;;;5039250;28;20896;-61
2021/04/19 03:32:44;;;;;;;0.20;0.20;;;;;;;;;;5045408;28;20684;-61
2021/04/19 03:35:13;;;;;;;0.00;0.00;;;;;;;;;;5037443;28;20181;-61
2021/04/19 03:37:41;;;;;;;0.07;0.07;;;;;;;;;;5038892;28;20279;-60
2021/04/19 03:40:09;;;;;;;1.90;0.93;;;;;;;;;;5034753;28;20191;-61
2021/04/19 03:42:39;;;;;;;6.53;1.47;;;;;;;;;;5033680;28;20208;-60
2021/04/19 03:45:07;;;;;;;1.20;1.20;;;;;;;;;;5025221;28;20198;-61
2021/04/19 03:47:34;;;;;;;8.63;4.13;;;;;;;;;;5022675;28;20652;-60
2021/04/19 03:50:02;;;;;;;0.83;0.83;;;;;;;;;;5020857;28;20452;-61
2021/04/19 03:52:34;;;;;;;0.87;0.87;;;;;;;;;;5023003;28;20195;-61
2021/04/19 03:55:02;;;;;;;0.00;0.00;;;;;;;;;;5028041;28;21781;-61
2021/04/19 03:57:29;;;;;;;0.47;0.47;;;;;;;;;;5034793;28;20176;-59
2021/04/19 04:00:00;;;;;;;3.40;2.20;;;;;;;;;;5024974;28;20907;-60
2021/04/19 04:02:28;;;;;;;21.53;4.33;;;;;;;;;;5027395;28;20235;-59
2021/04/19 04:04:55;;;;;;;8.10;1.80;;;;;;;;;;5023535;28;20184;-60
2021/04/19 04:07:22;;;;;;;1.23;1.17;;;;;;;;;;5027376;28;20188;-60
2021/04/19 04:09:49;;;;;;;0.30;0.23;;;;;;;;;;5023636;28;20211;-60
2021/04/19 04:12:16;;;;;;;2.30;0.77;;;;;;;;;;5031040;28;20789;-60
2021/04/19 04:14:52;;;;;;;0.77;0.77;;;;;;;;;;5037363;28;20186;-61
2021/04/19 04:17:19;;;;;;;0.93;0.73;;;;;;;;;;5031841;28;20199;-59
2021/04/19 04:19:46;;;;;;;5.53;1.50;;;;;;;;;;5036313;28;20782;-60
2021/04/19 04:22:13;;;;;;;6.90;6.60;;;;;;;;;;5027238;28;20263;-59
2021/04/19 04:24:40;;;;;;;0.70;0.50;;;;;;;;;;5024701;28;20925;-59
2021/04/19 04:27:07;;;;;;;1.43;1.00;;;;;;;;;;5023342;28;20227;-60
2021/04/19 04:29:33;;;;;;;0.53;0.53;;;;;;;;;;5030503;28;20724;-52
2021/04/19 04:32:00;;;;;;;0.17;0.17;;;;;;;;;;5029030;28;20460;-54
2021/04/19 04:34:27;;;;;;;3.50;2.10;;;;;;;;;;5035020;28;20198;-54
2021/04/19 04:36:53;;;;;;;0.63;0.40;;;;;;;;;;5033718;28;20559;-55
2021/04/19 04:39:20;;;;;;;0.03;0.03;;;;;;;;;;5038206;28;20214;-52
2021/04/19 04:41:47;;;;;;;0.10;0.10;;;;;;;;;;5036498;28;20192;-54
2021/04/19 04:44:34;;;;;;;0.93;0.50;;;;;;;;;;5022875;28;20192;-54
2021/04/19 04:47:01;;;;;;;0.97;0.97;;;;;;;;;;5029145;28;20184;-54
2021/04/19 04:49:29;;;;;;;5.10;2.27;;;;;;;;;;5031421;28;20238;-54
2021/04/19 04:51:57;;;;;;;0.50;0.23;;;;;;;;;;5025435;28;20175;-54
2021/04/19 04:54:24;;;;;;;0.77;0.73;;;;;;;;;;5028431;28;20177;-54
2021/04/19 04:56:56;;;;;;;3.27;1.60;;;;;;;;;;5038973;28;20359;-51
2021/04/19 04:59:24;;;;;;;0.00;0.00;;;;;;;;;;5030444;28;20185;-52
2021/04/19 05:01:51;;;;;;;15.57;2.20;;;;;;;;;;5030511;28;20220;-54
2021/04/19 05:04:18;;;;;;;3.80;1.03;;;;;;;;;;5023679;28;20250;-51
2021/04/19 05:06:46;;;;;;;0.53;0.53;;;;;;;;;;5026268;28;20195;-53
2021/04/19 05:09:12;;;;;;;1.80;0.50;;;;;;;;;;5030017;28;21013;-53
2021/04/19 05:11:39;;;;;;;17.37;5.43;;;;;;;;;;5035664;28;20317;-54
2021/04/19 05:14:06;;;;;;;7.30;1.50;;;;;;;;;;5038364;28;20264;-54
2021/04/19 05:16:32;;;;;;;4.57;2.67;;;;;;;;;;5029034;28;20919;-52
2021/04/19 05:19:01;;;;;;;0.83;0.83;;;;;;;;;;5026662;28;20183;-54
2021/04/19 05:21:27;;;;;;;4.50;1.00;;;;;;;;;;5027172;28;20180;-53
2021/04/19 05:23:54;;;;;;;2.23;1.10;;;;;;;;;;5033282;28;20978;-54
2021/04/19 05:26:21;;;;;;;4.60;0.67;;;;;;;;;;5023890;28;20195;-52
2021/04/19 05:28:48;;;;;;;1.07;0.97;;;;;;;;;;5032131;28;20202;-53
2021/04/19 05:31:15;;;;;;;0.40;0.40;;;;;;;;;;5020663;28;20190;-55
2021/04/19 05:33:42;;;;;;;2.53;0.70;;;;;;;;;;5032329;28;20183;-53
2021/04/19 05:36:12;;;;;;;14.73;4.73;;;;;;;;;;5032065;28;20178;-54
2021/04/19 05:38:41;;;;;;;3.63;2.17;;;;;;;;;;5036912;28;20681;-54
2021/04/19 05:41:08;;;;;;;2.27;1.27;;;;;;;;;;5034542;28;20185;-51
2021/04/19 05:43:34;;;;;;;2.53;1.00;;;;;;;;;;5041329;28;20190;-53
2021/04/19 05:46:02;;;;;;;0.03;0.03;;;;;;;;;;5038125;28;20262;-54
2021/04/19 05:48:28;;;;;;;0.20;0.20;;;;;;;;;;5037100;28;20210;-53
2021/04/19 05:50:58;;;;;;;0.87;0.30;;;;;;;;;;5033197;28;20211;-54
2021/04/19 05:53:25;;;;;;;2.17;1.60;;;;;;;;;;5033453;28;20692;-52
2021/04/19 05:55:55;;;;;;;0.00;0.00;;;;;;;;;;5026530;28;20252;-53
2021/04/19 05:58:28;;;;;;;1.50;0.70;;;;;;;;;;5025443;28;20187;-53
2021/04/19 06:01:07;;;;;;;0.00;0.00;;;;;;;;;;5029286;28;20712;-51
2021/04/19 06:04:03;;;;;;;0.47;0.40;;;;;;;;;;5038685;28;20246;-50
2021/04/19 06:06:33;;;;;;;0.77;0.77;;;;;;;;;;5024464;28;21023;-52
2021/04/19 06:09:08;;;;;;;0.10;0.10;;;;;;;;;;5030067;28;20198;-54
2021/04/19 06:11:43;;;;;;;0.10;0.10;;;;;;;;;;5032777;28;20225;-53
2021/04/19 06:14:10;;;;;;;0.00;0.00;;;;;;;;;;5027955;28;20175;-52
2021/04/19 06:16:38;;;;;;;0.27;0.27;;;;;;;;;;5026991;28;20475;-49
2021/04/19 06:19:10;;;;;;;0.00;0.00;;;;;;;;;;5026201;28;20181;-51
2021/04/19 06:21:36;;;;;;;0.03;0.03;;;;;;;;;;5029154;28;20925;-51
2021/04/19 06:24:04;;;;;;;0.10;0.10;;;;;;;;;;5035577;28;20184;-52
2021/04/19 06:26:30;;;;;;;1.17;1.13;;;;;;;;;;5026878;28;20857;-50
2021/04/19 06:28:57;;;;;;;0.00;0.00;;;;;;;;;;5047056;28;20227;-52
2021/04/19 06:31:24;;;;;;;3.00;1.73;;;;;;;;;;5028486;28;20191;-52
2021/04/19 06:34:10;;;;;;;12.23;1.50;;;;;;;;;;5044857;28;20272;-49
2021/04/19 06:36:37;;;;;;;0.63;0.63;;;;;;;;;;5032468;28;20185;-49
2021/04/19 06:39:06;;;;;;;0.17;0.17;;;;;;;;;;5046894;28;20712;-54
2021/04/19 06:41:32;;;;;;;0.00;0.00;;;;;;;;;;5039950;28;20229;-53
2021/04/19 06:43:59;;;;;;;0.10;0.10;;;;;;;;;;5029330;28;20183;-52
2021/04/19 06:46:27;;;;;;;2.53;0.93;;;;;;;;;;5023007;28;20196;-53
2021/04/19 06:48:54;;;;;;;30.57;1.60;;;;;;;;;;5031949;28;20188;-52
2021/04/19 06:51:21;;;;;;;0.60;0.60;;;;;;;;;;5032011;28;20188;-52
2021/04/19 06:53:50;;;;;;;0.00;0.00;;;;;;;;;;5029100;28;20191;-51
2021/04/19 06:56:17;;;;;;;0.10;0.10;;;;;;;;;;5023921;28;20211;-51
2021/04/19 06:58:44;;;;;;;0.00;0.00;;;;;;;;;;5030461;28;20854;-51
2021/04/19 07:01:11;;;;;;;0.27;0.27;;;;;;;;;;5030114;28;20196;-51
2021/04/19 07:03:41;;;;;;;2.77;1.93;;;;;;;;;;5030473;28;20191;-49
2021/04/19 07:06:08;;;;;;;0.10;0.10;;;;;;;;;;5039637;28;20271;-52
2021/04/19 07:08:46;;;;;;;2.83;1.90;;;;;;;;;;5035936;28;20190;-51
2021/04/19 07:11:12;;;;;;;0.80;0.80;;;;;;;;;;5025403;28;20205;-49
2021/04/19 07:13:42;;;;;;;0.47;0.43;;;;;;;;;;5032534;28;20183;-50
2021/04/19 07:16:09;;;;;;;0.00;0.00;;;;;;;;;;5030975;28;20183;-50
2021/04/19 07:18:35;;;;;;;0.00;0.00;;;;;;;;;;5027566;28;20195;-52
2021/04/19 07:21:02;;;;;;;0.00;0.00;;;;;;;;;;5036089;28;20893;-53
2021/04/19 07:23:29;;;;;;;0.00;0.00;;;;;;;;;;5036630;28;20302;-50
2021/04/19 07:25:56;;;;;;;0.00;0.00;;;;;;;;;;5036092;28;20211;-51
2021/04/19 07:28:22;;;;;;;0.10;0.10;;;;;;;;;;5034742;28;20187;-52
2021/04/19 07:30:58;;;;;;;0.00;0.00;;;;;;;;;;5037978;28;20224;-53
2021/04/19 07:33:25;;;;;;;0.23;0.23;;;;;;;;;;5041632;28;20208;-51
2021/04/19 07:35:52;;;;;;;0.87;0.43;;;;;;;;;;5031611;28;20187;-51
2021/04/19 07:38:30;;;;;;;1.67;1.20;;;;;;;;;;5031528;28;20184;-50
2021/04/19 07:40:57;;;;;;;1.70;0.67;;;;;;;;;;5026713;28;20188;-51
2021/04/19 07:43:24;;;;;;;2.50;2.33;;;;;;;;;;5028949;28;20214;-53
2021/04/19 07:46:01;;;;;;;0.40;0.40;;;;;;;;;;5033521;28;20763;-50
2021/04/19 07:48:39;;;;;;;0.43;0.43;;;;;;;;;;5033703;28;20194;-50
2021/04/19 07:51:34;;;;;;;0.10;0.10;;;;;;;;;;5033479;28;20314;-49
2021/04/19 07:54:13;;;;;;;2.23;1.93;;;;;;;;;;5036897;28;20190;-52
2021/04/19 07:56:40;;;;;;;0.67;0.40;;;;;;;;;;5039719;28;20416;-50
2021/04/19 07:59:25;;;;;;;0.00;0.00;;;;;;;;;;5030022;28;20218;-52
2021/04/19 08:02:15;;;;;;;9.63;1.03;;;;;;;;;;5032365;28;20278;-50
2021/04/19 08:04:48;;;;;;;0.00;0.00;;;;;;;;;;5033379;28;20627;-52
2021/04/19 08:07:18;;;;;;;0.00;0.00;;;;;;;;;;5042706;28;20196;-52
2021/04/19 08:09:53;;;;;;;4.23;0.87;;;;;;;;;;5036139;28;20217;-52
2021/04/19 08:12:27;;;;;;;0.03;0.03;;;;;;;;;;5033833;28;20190;-50
2021/04/19 08:14:55;;;;;;;0.40;0.40;;;;;;;;;;5029162;28;20187;-52
2021/04/19 08:17:27;;;;;;;0.63;0.63;;;;;;;;;;5037937;28;20624;-50
2021/04/19 08:19:53;;;;;;;0.30;0.30;;;;;;;;;;5042105;28;20184;-54
2021/04/19 08:22:21;;;;;;;1.30;0.97;;;;;;;;;;5032587;28;20191;-56
2021/04/19 08:24:49;;;;;;;5.93;2.00;;;;;;;;;;5033175;28;20288;-53
2021/04/19 08:27:23;;;;;;;3.70;0.40;;;;;;;;;;5038014;28;20321;-51
2021/04/19 08:29:49;;;;;;;0.00;0.00;;;;;;;;;;5032091;28;20241;-54
2021/04/19 08:32:17;;;;;;;0.50;0.43;;;;;;;;;;5027547;28;20290;-55
2021/04/19 08:34:44;;;;;;;0.47;0.30;;;;;;;;;;5025792;28;20197;-54
2021/04/19 08:37:11;;;;;;;2.90;1.37;;;;;;;;;;5029099;28;20576;-54
2021/04/19 08:39:39;;;;;;;0.73;0.70;;;;;;;;;;5028862;28;20198;-54
2021/04/19 08:42:06;;;;;;;2.20;1.03;;;;;;;;;;5022985;28;20233;-52
2021/04/19 08:44:34;;;;;;;0.00;0.00;;;;;;;;;;5025802;28;20259;-51
2021/04/19 08:47:01;;;;;;;0.00;0.00;;;;;;;;;;5030294;28;21267;-51
2021/04/19 08:49:29;;;;;;;2.97;1.37;;;;;;;;;;5023315;28;20222;-54
2021/04/19 08:51:56;;;;;;;5.83;3.00;;;;;;;;;;5020421;28;20188;-54
2021/04/19 08:54:23;;;;;;;0.03;0.03;;;;;;;;;;5028010;28;20186;-53
2021/04/19 08:56:50;;;;;;;0.13;0.13;;;;;;;;;;5026674;28;20190;-54
2021/04/19 08:59:17;;;;;;;0.57;0.57;;;;;;;;;;5026995;28;20451;-53
2021/04/19 09:01:44;;;;;;;0.00;0.00;;;;;;;;;;5029856;28;20591;-50
2021/04/19 13:03:27;;;;;;;2.07;0.17;;;;;;;;;;4995379;28;21123;-54
2021/04/19 13:05:53;;;;;;;0.40;0.40;;;;;;;;;;4976567;28;20488;-61
2021/04/19 13:08:20;;;;;;;1.57;1.47;;;;;;;;;;4977453;28;20176;-61
2021/04/19 13:10:46;;;;;;;2.23;1.00;;;;;;;;;;4982071;28;20202;-61
2021/04/19 13:13:13;;;;;;;5.33;2.23;;;;;;;;;;4983738;28;20559;-61
2021/04/19 13:15:39;;;;;;;0.20;0.20;;;;;;;;;;4978719;28;20277;-61
2021/04/19 13:18:06;;;;;;;3.87;1.77;;;;;;;;;;4983054;28;20276;-61
2021/04/19 13:20:33;;;;;;;2.70;2.53;;;;;;;;;;4976751;28;20233;-61
2021/04/19 13:23:00;;;;;;;0.77;0.53;;;;;;;;;;4982533;28;20225;-61
2021/04/19 13:25:26;;;;;;;1.50;0.10;;;;;;;;;;4975932;28;20546;-61
2021/04/19 13:27:53;;;;;;;9.43;1.73;;;;;;;;;;4975982;28;20652;-62
2021/04/19 13:30:20;;;;;;;3.60;0.67;;;;;;;;;;4976450;28;20581;-61
2021/04/19 13:32:46;;;;;;;2.53;0.87;;;;;;;;;;4976186;28;20181;-61
2021/04/19 13:35:14;;;;;;;0.50;0.50;;;;;;;;;;4975772;28;20185;-61
2021/04/19 13:37:41;;;;;;;1.10;1.10;;;;;;;;;;4975871;28;20275;-61
2021/04/19 13:40:09;;;;;;;0.40;0.30;;;;;;;;;;4975661;28;20534;-61
2021/04/19 13:42:36;;;;;;;0.77;0.77;;;;;;;;;;4975447;28;20218;-60
2021/04/19 13:45:04;;;;;;;2.30;0.70;;;;;;;;;;4975748;28;20272;-61
2021/04/19 13:47:30;;;;;;;0.13;0.07;;;;;;;;;;4975714;28;20632;-60
2021/04/19 13:49:57;;;;;;;4.77;1.20;;;;;;;;;;4976173;28;20300;-61
2021/04/19 13:52:23;;;;;;;1.33;0.37;;;;;;;;;;4976355;28;20742;-60
2021/04/19 13:54:50;;;;;;;4.57;2.23;;;;;;;;;;4978113;28;20237;-60
2021/04/19 13:57:16;;;;;;;0.03;0.03;;;;;;;;;;4975411;28;20203;-60
2021/04/19 13:59:43;;;;;;;0.90;0.73;;;;;;;;;;4974068;28;20188;-61
2021/04/19 14:02:09;;;;;;;2.90;1.67;;;;;;;;;;4986900;28;20646;-61
2021/04/19 14:04:36;;;;;;;0.00;0.00;;;;;;;;;;4994486;28;20545;-61
2021/04/19 14:07:02;;;;;;;2.43;1.30;;;;;;;;;;4996157;28;20201;-60
2021/04/19 14:09:29;;;;;;;2.90;1.90;;;;;;;;;;5000636;28;20203;-61
2021/04/19 14:11:56;;;;;;;0.67;0.37;;;;;;;;;;4994995;28;20219;-60
2021/04/19 14:14:23;;;;;;;1.17;1.03;;;;;;;;;;4988443;28;20195;-60
2021/04/19 14:16:49;;;;;;;0.17;0.17;;;;;;;;;;4985368;28;20582;-61
2021/04/19 14:19:16;;;;;;;1.53;1.00;;;;;;;;;;4975046;28;20189;-61
2021/04/19 14:21:43;;;;;;;5.10;2.33;;;;;;;;;;4980938;28;20558;-61
2021/04/19 14:24:10;;;;;;;5.50;0.87;;;;;;;;;;4981834;28;20194;-61
2021/04/19 14:26:36;;;;;;;1.87;1.57;;;;;;;;;;4983526;28;20192;-61
2021/04/19 14:29:03;;;;;;;16.70;3.93;;;;;;;;;;4981577;28;20662;-61
2021/04/19 14:31:33;;;;;;;3.33;2.33;;;;;;;;;;4974389;28;20190;-61
2021/04/19 14:33:59;;;;;;;6.37;1.53;;;;;;;;;;4975627;28;20238;-61
2021/04/19 14:36:27;;;;;;;4.73;1.80;;;;;;;;;;4981120;28;20645;-61
2021/04/19 14:38:57;;;;;;;1.67;1.17;;;;;;;;;;4987409;28;20697;-61
2021/04/19 14:41:24;;;;;;;2.37;1.23;;;;;;;;;;4982841;28;20339;-60
2021/04/19 14:43:51;;;;;;;0.53;0.10;;;;;;;;;;4982507;28;20570;-51
2021/04/19 14:46:17;;;;;;;2.27;1.37;;;;;;;;;;4980736;28;20262;-53
2021/04/19 14:48:44;;;;;;;1.70;1.60;;;;;;;;;;4981657;28;20192;-50
2021/04/19 14:51:12;;;;;;;0.47;0.47;;;;;;;;;;4980856;28;20724;-61
2021/04/19 14:53:38;;;;;;;0.30;0.20;;;;;;;;;;4982267;28;20947;-61
2021/04/19 14:56:05;;;;;;;5.40;1.33;;;;;;;;;;4979521;28;20284;-61
2021/04/19 14:58:32;;;;;;;1.03;0.53;;;;;;;;;;4980871;28;20181;-61
2021/04/19 15:00:58;;;;;;;1.83;1.73;;;;;;;;;;4981190;28;20189;-61
2021/04/19 15:03:25;;;;;;;2.07;1.23;;;;;;;;;;4979919;28;20186;-61
2021/04/19 15:05:55;;;;;;;1.93;1.77;;;;;;;;;;4976196;28;20193;-61
2021/04/19 15:08:21;;;;;;;0.10;0.10;;;;;;;;;;4980902;28;20189;-61
2021/04/19 15:10:49;;;;;;;8.80;2.07;;;;;;;;;;4987457;28;20696;-61
2021/04/19 15:13:15;;;;;;;1.87;1.53;;;;;;;;;;4984130;28;20271;-61
2021/04/19 15:15:42;;;;;;;8.03;1.53;;;;;;;;;;4974832;28;20197;-61
2021/04/19 15:18:09;;;;;;;2.73;1.00;;;;;;;;;;4988633;28;20216;-61
2021/04/19 15:20:36;;;;;;;1.33;0.23;;;;;;;;;;4981872;28;20212;-62
2021/04/19 15:23:04;;;;;;;17.03;3.53;;;;;;;;;;4982227;28;20221;-60
2021/04/19 15:25:30;;;;;;;9.57;3.43;;;;;;;;;;4973956;28;20261;-61
2021/04/19 15:27:58;;;;;;;4.97;1.10;;;;;;;;;;4963144;28;20186;-61
2021/04/19 15:30:25;;;;;;;3.50;1.83;;;;;;;;;;4977388;28;20752;-60
2021/04/19 15:32:55;;;;;;;1.70;1.13;;;;;;;;;;4974995;28;20199;-61
2021/04/19 15:35:21;;;;;;;11.60;1.37;;;;;;;;;;4977188;28;21080;-61
2021/04/19 15:37:49;;;;;;;4.33;1.03;;;;;;;;;;4972531;28;20207;-61
2021/04/19 15:40:17;;;;;;;7.30;2.97;;;;;;;;;;4978143;28;20182;-61
2021/04/19 15:42:44;;;;;;;3.40;1.83;;;;;;;;;;4976710;28;20327;-61
2021/04/19 15:45:12;;;;;;;2.57;1.20;;;;;;;;;;4972263;28;20753;-61
2021/04/19 15:47:39;;;;;;;1.50;0.77;;;;;;;;;;4979405;28;20193;-61
2021/04/19 15:50:06;;;;;;;4.67;1.93;;;;;;;;;;4978628;28;20732;-61
2021/04/19 15:52:33;;;;;;;14.43;7.30;;;;;;;;;;4978115;28;20199;-61
2021/04/19 15:54:59;;;;;;;5.30;1.47;;;;;;;;;;4978602;28;20273;-52
2021/04/19 15:57:26;;;;;;;3.50;1.60;;;;;;;;;;4977598;28;20181;-53
2021/04/19 15:59:53;;;;;;;19.80;2.67;;;;;;;;;;4979016;28;20193;-52
2021/04/19 16:02:20;;;;;;;7.70;3.30;;;;;;;;;;4978353;28;20585;-51
2021/04/19 16:04:47;;;;;;;5.10;1.77;;;;;;;;;;4985873;28;20551;-54
2021/04/19 16:07:13;;;;;;;10.17;3.47;;;;;;;;;;4978522;28;20223;-51
2021/04/19 16:09:40;;;;;;;1.43;1.27;;;;;;;;;;4978584;28;20188;-49
2021/04/19 16:12:06;;;;;;;1.33;0.27;;;;;;;;;;4979508;28;20363;-50
2021/04/19 16:14:33;;;;;;;3.83;2.00;;;;;;;;;;4974817;28;20570;-50
2021/04/19 16:16:59;;;;;;;4.03;0.83;;;;;;;;;;4977839;28;20197;-53
2021/04/19 16:19:27;;;;;;;3.03;1.70;;;;;;;;;;4978214;28;20311;-54
2021/04/19 16:21:54;;;;;;;1.57;0.53;;;;;;;;;;4972128;28;20255;-52
2021/04/19 16:24:22;;;;;;;0.07;0.03;;;;;;;;;;4975141;28;20273;-51
2021/04/19 16:26:49;;;;;;;0.50;0.50;;;;;;;;;;4970322;28;20291;-51
2021/04/19 16:29:15;;;;;;;2.00;1.00;;;;;;;;;;4977945;28;20200;-54
2021/04/19 16:31:42;;;;;;;0.97;0.67;;;;;;;;;;4976072;28;20603;-50
2021/04/19 16:34:08;;;;;;;4.23;1.77;;;;;;;;;;4969341;28;20208;-51
2021/04/19 16:36:35;;;;;;;4.83;1.10;;;;;;;;;;4986463;28;20273;-52
2021/04/19 16:39:02;;;;;;;1.17;1.10;;;;;;;;;;4976127;28;20581;-53
2021/04/19 16:41:29;;;;;;;10.13;0.90;;;;;;;;;;4971238;28;20214;-52
2021/04/19 16:43:55;;;;;;;0.50;0.47;;;;;;;;;;4971575;28;20185;-53
2021/04/19 16:46:21;;;;;;;1.70;0.77;;;;;;;;;;4975839;28;20232;-54
2021/04/19 16:48:48;;;;;;;15.13;4.10;;;;;;;;;;4977129;28;20479;-52
2021/04/19 16:51:15;;;;;;;2.60;1.47;;;;;;;;;;4980382;28;20177;-55
2021/04/19 16:53:41;;;;;;;1.10;0.93;;;;;;;;;;4962979;28;20192;-51
2021/04/19 16:56:08;;;;;;;1.87;1.00;;;;;;;;;;4976885;28;20816;-50
2021/04/19 16:58:34;;;;;;;0.20;0.20;;;;;;;;;;4970063;28;20185;-51
2021/04/19 17:01:01;;;;;;;1.20;0.50;;;;;;;;;;4964932;28;20182;-49
2021/04/19 17:03:27;;;;;;;4.83;1.63;;;;;;;;;;4973514;28;20221;-52
2021/04/19 17:05:54;;;;;;;3.40;1.20;;;;;;;;;;4978451;28;20275;-51
2021/04/19 17:08:22;;;;;;;5.40;3.43;;;;;;;;;;4972843;28;20215;-51
2021/04/19 17:10:49;;;;;;;8.37;2.63;;;;;;;;;;4977352;28;20200;-51
2021/04/19 17:13:15;;;;;;;1.03;0.53;;;;;;;;;;4978945;28;20192;-53
2021/04/19 17:15:42;;;;;;;5.10;0.87;;;;;;;;;;4977707;28;20225;-49
2021/04/19 17:18:08;;;;;;;1.43;0.53;;;;;;;;;;4974957;28;20199;-53
2021/04/19 17:20:35;;;;;;;8.17;3.63;;;;;;;;;;4976641;28;20181;-54
2021/04/19 17:23:02;;;;;;;6.67;1.83;;;;;;;;;;4975537;28;20206;-55
2021/04/19 17:25:28;;;;;;;0.63;0.63;;;;;;;;;;4974072;28;20264;-55
2021/04/19 17:27:55;;;;;;;6.77;0.70;;;;;;;;;;4977289;28;20185;-54
2021/04/19 17:30:23;;;;;;;0.00;0.00;;;;;;;;;;4977511;28;20254;-53
2021/04/19 17:32:50;;;;;;;5.33;4.93;;;;;;;;;;4974469;28;20180;-53
2021/04/19 17:35:17;;;;;;;1.43;0.47;;;;;;;;;;4970371;28;20194;-54
2021/04/19 17:37:44;;;;;;;1.27;1.17;;;;;;;;;;4968084;28;20201;-53
2021/04/19 17:40:11;;;;;;;9.20;0.73;;;;;;;;;;4975161;28;20184;-53
2021/04/19 17:42:38;;;;;;;0.47;0.20;;;;;;;;;;4972128;28;20307;-54
2021/04/19 17:45:07;;;;;;;2.77;1.00;;;;;;;;;;4975146;28;20724;-53
2021/04/19 17:47:33;;;;;;;0.93;0.53;;;;;;;;;;4977170;28;20185;-54
2021/04/19 17:50:00;;;;;;;1.27;0.50;;;;;;;;;;4973210;28;20701;-54
2021/04/19 17:52:27;;;;;;;2.13;2.03;;;;;;;;;;4975850;28;20647;-53
2021/04/19 17:54:53;;;;;;;1.10;0.67;;;;;;;;;;4971908;28;20194;-50
2021/04/19 17:57:20;;;;;;;0.77;0.77;;;;;;;;;;4975384;28;20503;-50
2021/04/19 17:59:46;;;;;;;0.20;0.20;;;;;;;;;;4990043;28;20193;-53
2021/04/19 18:02:13;;;;;;;1.13;0.43;;;;;;;;;;4975071;28;20308;-50
2021/04/19 18:04:39;;;;;;;4.27;1.27;;;;;;;;;;4976042;28;20200;-50
2021/04/19 18:07:06;;;;;;;0.50;0.50;;;;;;;;;;4975689;28;20186;-50
2021/04/19 18:09:33;;;;;;;3.60;1.60;;;;;;;;;;4977781;28;20197;-51
2021/04/19 18:12:00;;;;;;;1.10;0.40;;;;;;;;;;4982180;28;20197;-52
2021/04/19 18:14:30;;;;;;;1.33;0.47;;;;;;;;;;4980294;28;20185;-53
2021/04/19 18:16:56;;;;;;;0.23;0.20;;;;;;;;;;4981926;28;20196;-50
2021/04/19 18:19:23;;;;;;;3.57;1.20;;;;;;;;;;4979870;28;20622;-55
2021/04/19 18:21:49;;;;;;;1.00;0.87;;;;;;;;;;4979112;28;20625;-51
2021/04/19 18:24:19;;;;;;;2.53;1.13;;;;;;;;;;4981198;28;20193;-52
2021/04/19 18:26:46;;;;;;;2.13;0.53;;;;;;;;;;4981117;28;20198;-50
2021/04/19 18:29:19;;;;;;;0.20;0.20;;;;;;;;;;4981306;28;20656;-50
2021/04/19 18:31:45;;;;;;;7.00;1.13;;;;;;;;;;4975319;28;20197;-50
2021/04/19 18:34:12;;;;;;;5.83;2.37;;;;;;;;;;4979386;28;20182;-50
2021/04/19 18:36:38;;;;;;;1.77;0.70;;;;;;;;;;4969455;28;20537;-53
2021/04/19 18:39:05;;;;;;;8.23;1.57;;;;;;;;;;4974826;28;20193;-53
2021/04/19 18:41:32;;;;;;;1.53;0.57;;;;;;;;;;4980623;28;20216;-57
2021/04/19 18:43:59;;;;;;;4.47;0.77;;;;;;;;;;4983391;28;20656;-50
2021/04/19 18:46:26;;;;;;;1.50;1.40;;;;;;;;;;4981426;28;20184;-52
2021/04/19 18:48:53;;;;;;;1.83;0.97;;;;;;;;;;4976622;28;20182;-50